sensor_id;sensor_type;location;lat;lon;timestamp;P1;durP1;ratioP1;P2;durP2;ratioP2
16288;SDS011;26089;43.538;5.250;2023-02-28T00:00:24;20.37;;;13.47;;
16288;SDS011;26089;43.538;5.250;2023-02-28T00:02:51;14.80;;;11.60;;
16288;SDS011;26089;43.538;5.250;2023-02-28T00:05:20;17.77;;;13.30;;
16288;SDS011;26089;43.538;5.250;2023-02-28T00:07:48;12.87;;;10.40;;
16288;SDS011;26089;43.538;5.250;2023-02-28T00:10:16;15.87;;;10.97;;
16288;SDS011;26089;43.538;5.250;2023-02-28T00:12:47;13.87;;;10.20;;
16288;SDS011;26089;43.538;5.250;2023-02-28T00:15:14;18.37;;;11.73;;
16288;SDS011;26089;43.538;5.250;2023-02-28T00:17:41;13.93;;;10.93;;
16288;SDS011;26089;43.538;5.250;2023-02-28T00:20:10;11.93;;;10.00;;
16288;SDS011;26089;43.538;5.250;2023-02-28T00:22:38;9.37;;;8.47;;
16288;SDS011;26089;43.538;5.250;2023-02-28T00:25:07;7.63;;;6.83;;
16288;SDS011;26089;43.538;5.250;2023-02-28T00:27:35;15.20;;;8.70;;
16288;SDS011;26089;43.538;5.250;2023-02-28T00:30:06;10.90;;;8.63;;
16288;SDS011;26089;43.538;5.250;2023-02-28T00:32:35;10.70;;;9.53;;
16288;SDS011;26089;43.538;5.250;2023-02-28T00:35:03;9.23;;;8.33;;
16288;SDS011;26089;43.538;5.250;2023-02-28T00:37:30;13.77;;;9.20;;
16288;SDS011;26089;43.538;5.250;2023-02-28T00:39:57;9.20;;;7.73;;
16288;SDS011;26089;43.538;5.250;2023-02-28T00:42:24;9.13;;;8.20;;
16288;SDS011;26089;43.538;5.250;2023-02-28T00:44:52;8.83;;;8.07;;
16288;SDS011;26089;43.538;5.250;2023-02-28T00:47:20;12.13;;;8.17;;
16288;SDS011;26089;43.538;5.250;2023-02-28T00:49:47;8.77;;;7.93;;
16288;SDS011;26089;43.538;5.250;2023-02-28T00:52:14;9.23;;;8.23;;
16288;SDS011;26089;43.538;5.250;2023-02-28T00:54:41;11.60;;;9.00;;
16288;SDS011;26089;43.538;5.250;2023-02-28T00:57:08;8.10;;;7.30;;
16288;SDS011;26089;43.538;5.250;2023-02-28T00:59:35;8.17;;;7.37;;
16288;SDS011;26089;43.538;5.250;2023-02-28T01:02:02;8.77;;;7.53;;
16288;SDS011;26089;43.538;5.250;2023-02-28T01:04:31;7.23;;;6.50;;
16288;SDS011;26089;43.538;5.250;2023-02-28T01:06:58;10.43;;;8.70;;
16288;SDS011;26089;43.538;5.250;2023-02-28T01:09:25;10.17;;;8.00;;
16288;SDS011;26089;43.538;5.250;2023-02-28T01:11:52;9.00;;;8.00;;
16288;SDS011;26089;43.538;5.250;2023-02-28T01:14:19;11.80;;;9.43;;
16288;SDS011;26089;43.538;5.250;2023-02-28T01:16:46;10.10;;;8.27;;
16288;SDS011;26089;43.538;5.250;2023-02-28T01:19:13;9.63;;;7.53;;
16288;SDS011;26089;43.538;5.250;2023-02-28T01:21:41;9.47;;;8.40;;
16288;SDS011;26089;43.538;5.250;2023-02-28T01:24:08;19.17;;;11.97;;
16288;SDS011;26089;43.538;5.250;2023-02-28T01:26:35;13.70;;;9.80;;
16288;SDS011;26089;43.538;5.250;2023-02-28T01:29:02;8.97;;;7.93;;
16288;SDS011;26089;43.538;5.250;2023-02-28T01:31:29;7.40;;;6.70;;
16288;SDS011;26089;43.538;5.250;2023-02-28T01:33:56;8.00;;;7.20;;
16288;SDS011;26089;43.538;5.250;2023-02-28T01:36:24;11.07;;;8.40;;
16288;SDS011;26089;43.538;5.250;2023-02-28T01:38:53;14.83;;;10.60;;
16288;SDS011;26089;43.538;5.250;2023-02-28T01:41:21;8.13;;;7.33;;
16288;SDS011;26089;43.538;5.250;2023-02-28T01:43:53;8.80;;;7.33;;
16288;SDS011;26089;43.538;5.250;2023-02-28T01:46:22;11.80;;;9.33;;
16288;SDS011;26089;43.538;5.250;2023-02-28T01:48:50;9.23;;;7.63;;
16288;SDS011;26089;43.538;5.250;2023-02-28T01:51:22;11.07;;;9.10;;
16288;SDS011;26089;43.538;5.250;2023-02-28T01:53:55;7.57;;;6.87;;
16288;SDS011;26089;43.538;5.250;2023-02-28T01:56:26;8.43;;;6.70;;
16288;SDS011;26089;43.538;5.250;2023-02-28T01:58:56;10.13;;;8.43;;
16288;SDS011;26089;43.538;5.250;2023-02-28T02:01:24;8.93;;;7.83;;
16288;SDS011;26089;43.538;5.250;2023-02-28T02:03:53;10.03;;;8.43;;
16288;SDS011;26089;43.538;5.250;2023-02-28T02:06:22;10.67;;;8.33;;
16288;SDS011;26089;43.538;5.250;2023-02-28T02:08:50;7.13;;;6.53;;
16288;SDS011;26089;43.538;5.250;2023-02-28T02:11:20;7.00;;;6.40;;
16288;SDS011;26089;43.538;5.250;2023-02-28T02:13:53;7.57;;;6.87;;
16288;SDS011;26089;43.538;5.250;2023-02-28T02:16:38;8.00;;;6.77;;
16288;SDS011;26089;43.538;5.250;2023-02-28T02:19:24;8.27;;;7.47;;
16288;SDS011;26089;43.538;5.250;2023-02-28T02:25:19;10.67;;;6.90;;
16288;SDS011;26089;43.538;5.250;2023-02-28T02:30:59;10.83;;;8.70;;
16288;SDS011;26089;43.538;5.250;2023-02-28T02:36:48;11.13;;;8.93;;
16288;SDS011;26089;43.538;5.250;2023-02-28T02:39:22;11.70;;;9.80;;
16288;SDS011;26089;43.538;5.250;2023-02-28T02:41:56;12.23;;;8.93;;
16288;SDS011;26089;43.538;5.250;2023-02-28T02:44:28;10.13;;;8.20;;
16288;SDS011;26089;43.538;5.250;2023-02-28T02:47:08;10.60;;;8.23;;
16288;SDS011;26089;43.538;5.250;2023-02-28T02:49:40;9.67;;;6.97;;
16288;SDS011;26089;43.538;5.250;2023-02-28T02:52:11;8.00;;;7.20;;
16288;SDS011;26089;43.538;5.250;2023-02-28T02:54:41;11.03;;;8.30;;
16288;SDS011;26089;43.538;5.250;2023-02-28T02:57:12;11.20;;;9.27;;
16288;SDS011;26089;43.538;5.250;2023-02-28T02:59:43;8.23;;;7.43;;
16288;SDS011;26089;43.538;5.250;2023-02-28T03:02:12;9.10;;;8.10;;
16288;SDS011;26089;43.538;5.250;2023-02-28T03:04:46;10.23;;;8.90;;
16288;SDS011;26089;43.538;5.250;2023-02-28T03:07:18;8.37;;;7.43;;
16288;SDS011;26089;43.538;5.250;2023-02-28T03:09:49;9.53;;;8.07;;
16288;SDS011;26089;43.538;5.250;2023-02-28T03:12:17;10.10;;;7.80;;
16288;SDS011;26089;43.538;5.250;2023-02-28T03:14:49;9.57;;;7.73;;
16288;SDS011;26089;43.538;5.250;2023-02-28T03:20:29;10.80;;;7.87;;
16288;SDS011;26089;43.538;5.250;2023-02-28T03:23:10;11.57;;;7.60;;
16288;SDS011;26089;43.538;5.250;2023-02-28T03:25:46;9.87;;;8.70;;
16288;SDS011;26089;43.538;5.250;2023-02-28T03:28:23;11.00;;;7.60;;
16288;SDS011;26089;43.538;5.250;2023-02-28T03:30:59;9.27;;;8.10;;
16288;SDS011;26089;43.538;5.250;2023-02-28T03:33:30;7.83;;;7.13;;
16288;SDS011;26089;43.538;5.250;2023-02-28T03:36:04;8.57;;;7.63;;
16288;SDS011;26089;43.538;5.250;2023-02-28T03:38:35;8.20;;;7.50;;
16288;SDS011;26089;43.538;5.250;2023-02-28T03:41:09;8.20;;;7.33;;
16288;SDS011;26089;43.538;5.250;2023-02-28T03:43:41;8.50;;;7.53;;
16288;SDS011;26089;43.538;5.250;2023-02-28T03:46:13;9.50;;;8.53;;
16288;SDS011;26089;43.538;5.250;2023-02-28T03:48:47;9.90;;;7.53;;
16288;SDS011;26089;43.538;5.250;2023-02-28T03:51:21;8.73;;;7.83;;
16288;SDS011;26089;43.538;5.250;2023-02-28T03:53:50;8.17;;;7.37;;
16288;SDS011;26089;43.538;5.250;2023-02-28T03:56:21;8.27;;;7.43;;
16288;SDS011;26089;43.538;5.250;2023-02-28T03:58:53;8.83;;;7.93;;
16288;SDS011;26089;43.538;5.250;2023-02-28T04:01:25;8.13;;;7.33;;
16288;SDS011;26089;43.538;5.250;2023-02-28T04:03:58;9.97;;;7.73;;
16288;SDS011;26089;43.538;5.250;2023-02-28T04:06:26;9.73;;;8.20;;
16288;SDS011;26089;43.538;5.250;2023-02-28T04:08:56;9.30;;;8.30;;
16288;SDS011;26089;43.538;5.250;2023-02-28T04:11:23;9.77;;;8.77;;
16288;SDS011;26089;43.538;5.250;2023-02-28T04:13:56;9.07;;;8.17;;
16288;SDS011;26089;43.538;5.250;2023-02-28T04:16:23;8.20;;;7.50;;
16288;SDS011;26089;43.538;5.250;2023-02-28T04:18:50;8.40;;;7.60;;
16288;SDS011;26089;43.538;5.250;2023-02-28T04:21:17;8.63;;;7.70;;
16288;SDS011;26089;43.538;5.250;2023-02-28T04:23:47;9.77;;;8.87;;
16288;SDS011;26089;43.538;5.250;2023-02-28T04:26:14;8.47;;;7.57;;
16288;SDS011;26089;43.538;5.250;2023-02-28T04:28:41;9.37;;;8.30;;
16288;SDS011;26089;43.538;5.250;2023-02-28T04:31:08;9.83;;;8.13;;
16288;SDS011;26089;43.538;5.250;2023-02-28T04:33:35;9.33;;;8.37;;
16288;SDS011;26089;43.538;5.250;2023-02-28T04:36:03;8.43;;;7.63;;
16288;SDS011;26089;43.538;5.250;2023-02-28T04:41:01;11.17;;;8.10;;
16288;SDS011;26089;43.538;5.250;2023-02-28T04:43:28;9.27;;;8.13;;
16288;SDS011;26089;43.538;5.250;2023-02-28T04:45:56;8.63;;;7.43;;
16288;SDS011;26089;43.538;5.250;2023-02-28T04:48:27;8.47;;;7.57;;
16288;SDS011;26089;43.538;5.250;2023-02-28T04:50:55;9.87;;;7.83;;
16288;SDS011;26089;43.538;5.250;2023-02-28T04:53:27;9.13;;;8.00;;
16288;SDS011;26089;43.538;5.250;2023-02-28T04:55:55;8.23;;;7.10;;
16288;SDS011;26089;43.538;5.250;2023-02-28T04:58:23;8.20;;;7.50;;
16288;SDS011;26089;43.538;5.250;2023-02-28T05:00:51;9.43;;;7.93;;
16288;SDS011;26089;43.538;5.250;2023-02-28T05:03:19;9.67;;;7.33;;
16288;SDS011;26089;43.538;5.250;2023-02-28T05:05:47;7.50;;;6.90;;
16288;SDS011;26089;43.538;5.250;2023-02-28T05:08:14;9.43;;;8.20;;
16288;SDS011;26089;43.538;5.250;2023-02-28T05:10:41;8.70;;;7.90;;
16288;SDS011;26089;43.538;5.250;2023-02-28T05:13:09;9.53;;;8.63;;
16288;SDS011;26089;43.538;5.250;2023-02-28T05:15:39;9.67;;;8.67;;
16288;SDS011;26089;43.538;5.250;2023-02-28T05:18:06;10.80;;;9.27;;
16288;SDS011;26089;43.538;5.250;2023-02-28T05:20:34;8.40;;;7.30;;
16288;SDS011;26089;43.538;5.250;2023-02-28T05:23:02;9.80;;;8.30;;
16288;SDS011;26089;43.538;5.250;2023-02-28T05:25:29;8.90;;;8.10;;
16288;SDS011;26089;43.538;5.250;2023-02-28T05:27:56;10.63;;;8.63;;
16288;SDS011;26089;43.538;5.250;2023-02-28T05:30:24;9.43;;;8.10;;
16288;SDS011;26089;43.538;5.250;2023-02-28T05:32:52;8.40;;;7.57;;
16288;SDS011;26089;43.538;5.250;2023-02-28T05:35:19;8.40;;;7.50;;
16288;SDS011;26089;43.538;5.250;2023-02-28T05:37:46;9.60;;;8.60;;
16288;SDS011;26089;43.538;5.250;2023-02-28T05:40:13;8.50;;;7.60;;
16288;SDS011;26089;43.538;5.250;2023-02-28T05:42:40;8.33;;;7.53;;
16288;SDS011;26089;43.538;5.250;2023-02-28T05:45:08;9.50;;;8.30;;
16288;SDS011;26089;43.538;5.250;2023-02-28T05:47:35;7.87;;;7.07;;
16288;SDS011;26089;43.538;5.250;2023-02-28T05:50:04;8.60;;;7.83;;
16288;SDS011;26089;43.538;5.250;2023-02-28T05:52:34;8.57;;;7.77;;
16288;SDS011;26089;43.538;5.250;2023-02-28T05:55:01;8.00;;;7.20;;
16288;SDS011;26089;43.538;5.250;2023-02-28T05:57:28;8.27;;;7.43;;
16288;SDS011;26089;43.538;5.250;2023-02-28T05:59:55;10.07;;;8.17;;
16288;SDS011;26089;43.538;5.250;2023-02-28T06:02:22;8.53;;;7.73;;
16288;SDS011;26089;43.538;5.250;2023-02-28T06:04:49;8.10;;;7.40;;
16288;SDS011;26089;43.538;5.250;2023-02-28T06:07:17;9.73;;;8.00;;
16288;SDS011;26089;43.538;5.250;2023-02-28T06:09:44;9.33;;;8.07;;
16288;SDS011;26089;43.538;5.250;2023-02-28T06:12:11;9.47;;;8.57;;
16288;SDS011;26089;43.538;5.250;2023-02-28T06:14:38;9.83;;;8.93;;
16288;SDS011;26089;43.538;5.250;2023-02-28T06:17:06;8.87;;;7.97;;
16288;SDS011;26089;43.538;5.250;2023-02-28T06:19:33;9.30;;;8.43;;
16288;SDS011;26089;43.538;5.250;2023-02-28T06:22:00;10.23;;;9.00;;
16288;SDS011;26089;43.538;5.250;2023-02-28T06:24:28;11.50;;;8.73;;
16288;SDS011;26089;43.538;5.250;2023-02-28T06:26:56;9.47;;;8.10;;
16288;SDS011;26089;43.538;5.250;2023-02-28T06:29:24;11.40;;;9.87;;
16288;SDS011;26089;43.538;5.250;2023-02-28T06:31:51;10.13;;;8.83;;
16288;SDS011;26089;43.538;5.250;2023-02-28T06:34:18;16.47;;;10.87;;
16288;SDS011;26089;43.538;5.250;2023-02-28T06:36:45;11.33;;;8.80;;
16288;SDS011;26089;43.538;5.250;2023-02-28T06:39:12;9.67;;;8.77;;
16288;SDS011;26089;43.538;5.250;2023-02-28T06:41:40;10.23;;;9.33;;
16288;SDS011;26089;43.538;5.250;2023-02-28T06:44:10;10.93;;;9.83;;
16288;SDS011;26089;43.538;5.250;2023-02-28T06:46:39;10.30;;;8.47;;
16288;SDS011;26089;43.538;5.250;2023-02-28T06:49:06;9.47;;;8.57;;
16288;SDS011;26089;43.538;5.250;2023-02-28T06:51:35;11.80;;;10.40;;
16288;SDS011;26089;43.538;5.250;2023-02-28T06:54:03;10.37;;;9.47;;
16288;SDS011;26089;43.538;5.250;2023-02-28T06:56:33;10.90;;;9.70;;
16288;SDS011;26089;43.538;5.250;2023-02-28T06:59:02;11.53;;;10.00;;
16288;SDS011;26089;43.538;5.250;2023-02-28T07:01:30;12.40;;;9.23;;
16288;SDS011;26089;43.538;5.250;2023-02-28T07:03:58;13.10;;;9.10;;
16288;SDS011;26089;43.538;5.250;2023-02-28T07:06:26;11.33;;;8.90;;
16288;SDS011;26089;43.538;5.250;2023-02-28T07:08:53;10.20;;;8.77;;
16288;SDS011;26089;43.538;5.250;2023-02-28T07:11:21;10.03;;;8.77;;
16288;SDS011;26089;43.538;5.250;2023-02-28T07:13:50;11.03;;;10.03;;
16288;SDS011;26089;43.538;5.250;2023-02-28T07:16:19;9.37;;;8.50;;
16288;SDS011;26089;43.538;5.250;2023-02-28T07:18:47;9.87;;;8.97;;
16288;SDS011;26089;43.538;5.250;2023-02-28T07:21:14;10.17;;;9.20;;
16288;SDS011;26089;43.538;5.250;2023-02-28T07:23:41;11.97;;;10.50;;
16288;SDS011;26089;43.538;5.250;2023-02-28T07:26:11;10.43;;;9.33;;
16288;SDS011;26089;43.538;5.250;2023-02-28T07:28:40;10.63;;;9.53;;
16288;SDS011;26089;43.538;5.250;2023-02-28T07:31:08;11.00;;;8.63;;
16288;SDS011;26089;43.538;5.250;2023-02-28T07:33:37;10.57;;;8.97;;
16288;SDS011;26089;43.538;5.250;2023-02-28T07:36:04;10.97;;;9.80;;
16288;SDS011;26089;43.538;5.250;2023-02-28T07:38:33;12.03;;;10.37;;
16288;SDS011;26089;43.538;5.250;2023-02-28T07:41:00;10.87;;;9.17;;
16288;SDS011;26089;43.538;5.250;2023-02-28T07:43:29;13.00;;;10.17;;
16288;SDS011;26089;43.538;5.250;2023-02-28T07:46:00;17.97;;;12.83;;
16288;SDS011;26089;43.538;5.250;2023-02-28T07:48:28;14.77;;;11.33;;
16288;SDS011;26089;43.538;5.250;2023-02-28T07:50:57;13.37;;;10.13;;
16288;SDS011;26089;43.538;5.250;2023-02-28T07:53:25;13.10;;;10.33;;
16288;SDS011;26089;43.538;5.250;2023-02-28T07:55:54;10.87;;;9.77;;
16288;SDS011;26089;43.538;5.250;2023-02-28T07:58:22;10.73;;;9.20;;
16288;SDS011;26089;43.538;5.250;2023-02-28T08:00:49;11.80;;;10.60;;
16288;SDS011;26089;43.538;5.250;2023-02-28T08:03:16;12.17;;;10.00;;
16288;SDS011;26089;43.538;5.250;2023-02-28T08:05:44;11.73;;;9.37;;
16288;SDS011;26089;43.538;5.250;2023-02-28T08:08:13;10.93;;;9.60;;
16288;SDS011;26089;43.538;5.250;2023-02-28T08:10:40;10.37;;;9.27;;
16288;SDS011;26089;43.538;5.250;2023-02-28T08:13:08;10.40;;;9.40;;
16288;SDS011;26089;43.538;5.250;2023-02-28T08:15:35;9.83;;;8.93;;
16288;SDS011;26089;43.538;5.250;2023-02-28T08:18:02;12.70;;;9.57;;
16288;SDS011;26089;43.538;5.250;2023-02-28T08:20:29;10.67;;;9.57;;
16288;SDS011;26089;43.538;5.250;2023-02-28T08:22:56;12.03;;;10.60;;
16288;SDS011;26089;43.538;5.250;2023-02-28T08:25:25;10.80;;;9.70;;
16288;SDS011;26089;43.538;5.250;2023-02-28T08:27:52;11.13;;;10.00;;
16288;SDS011;26089;43.538;5.250;2023-02-28T08:30:19;12.30;;;10.57;;
16288;SDS011;26089;43.538;5.250;2023-02-28T08:32:46;11.83;;;10.63;;
16288;SDS011;26089;43.538;5.250;2023-02-28T08:35:13;12.70;;;9.83;;
16288;SDS011;26089;43.538;5.250;2023-02-28T08:37:40;13.43;;;11.93;;
16288;SDS011;26089;43.538;5.250;2023-02-28T08:40:08;12.57;;;10.30;;
16288;SDS011;26089;43.538;5.250;2023-02-28T08:42:37;12.40;;;10.63;;
16288;SDS011;26089;43.538;5.250;2023-02-28T08:45:04;13.47;;;10.83;;
16288;SDS011;26089;43.538;5.250;2023-02-28T08:47:32;11.10;;;9.73;;
16288;SDS011;26089;43.538;5.250;2023-02-28T08:49:59;13.57;;;10.87;;
16288;SDS011;26089;43.538;5.250;2023-02-28T08:52:26;14.63;;;10.97;;
16288;SDS011;26089;43.538;5.250;2023-02-28T08:54:53;13.17;;;11.57;;
16288;SDS011;26089;43.538;5.250;2023-02-28T08:57:20;14.13;;;11.37;;
16288;SDS011;26089;43.538;5.250;2023-02-28T08:59:49;12.53;;;10.63;;
16288;SDS011;26089;43.538;5.250;2023-02-28T09:02:16;11.50;;;10.13;;
16288;SDS011;26089;43.538;5.250;2023-02-28T09:04:43;12.17;;;10.53;;
16288;SDS011;26089;43.538;5.250;2023-02-28T09:07:11;11.87;;;10.60;;
16288;SDS011;26089;43.538;5.250;2023-02-28T09:09:39;11.67;;;10.13;;
16288;SDS011;26089;43.538;5.250;2023-02-28T09:12:18;14.13;;;10.63;;
16288;SDS011;26089;43.538;5.250;2023-02-28T09:14:45;11.50;;;10.40;;
16288;SDS011;26089;43.538;5.250;2023-02-28T09:17:14;12.83;;;10.57;;
16288;SDS011;26089;43.538;5.250;2023-02-28T09:19:41;12.33;;;11.17;;
16288;SDS011;26089;43.538;5.250;2023-02-28T09:22:08;11.57;;;10.37;;
16288;SDS011;26089;43.538;5.250;2023-02-28T09:24:36;11.97;;;10.70;;
16288;SDS011;26089;43.538;5.250;2023-02-28T09:27:04;13.90;;;11.10;;
16288;SDS011;26089;43.538;5.250;2023-02-28T09:29:31;11.53;;;10.33;;
16288;SDS011;26089;43.538;5.250;2023-02-28T09:31:59;10.90;;;9.80;;
16288;SDS011;26089;43.538;5.250;2023-02-28T09:34:28;15.87;;;11.43;;
16288;SDS011;26089;43.538;5.250;2023-02-28T09:36:56;15.07;;;13.03;;
16288;SDS011;26089;43.538;5.250;2023-02-28T09:39:23;11.63;;;10.43;;
16288;SDS011;26089;43.538;5.250;2023-02-28T09:41:52;11.37;;;10.27;;
16288;SDS011;26089;43.538;5.250;2023-02-28T09:44:20;13.90;;;11.57;;
16288;SDS011;26089;43.538;5.250;2023-02-28T09:46:55;11.30;;;10.17;;
16288;SDS011;26089;43.538;5.250;2023-02-28T09:49:28;11.37;;;10.17;;
16288;SDS011;26089;43.538;5.250;2023-02-28T09:52:04;11.60;;;10.40;;
16288;SDS011;26089;43.538;5.250;2023-02-28T09:54:35;12.57;;;10.47;;
16288;SDS011;26089;43.538;5.250;2023-02-28T09:57:05;11.40;;;10.20;;
16288;SDS011;26089;43.538;5.250;2023-02-28T09:59:39;12.40;;;10.57;;
16288;SDS011;26089;43.538;5.250;2023-02-28T10:02:21;12.67;;;10.90;;
16288;SDS011;26089;43.538;5.250;2023-02-28T10:05:05;13.63;;;10.33;;
16288;SDS011;26089;43.538;5.250;2023-02-28T10:07:40;10.83;;;9.83;;
16288;SDS011;26089;43.538;5.250;2023-02-28T10:10:21;10.90;;;9.67;;
16288;SDS011;26089;43.538;5.250;2023-02-28T10:12:52;10.20;;;8.93;;
16288;SDS011;26089;43.538;5.250;2023-02-28T10:15:22;11.20;;;9.27;;
16288;SDS011;26089;43.538;5.250;2023-02-28T10:17:53;10.00;;;8.63;;
16288;SDS011;26089;43.538;5.250;2023-02-28T10:20:25;10.07;;;8.97;;
16288;SDS011;26089;43.538;5.250;2023-02-28T10:22:57;10.87;;;9.87;;
16288;SDS011;26089;43.538;5.250;2023-02-28T10:25:32;11.20;;;10.10;;
16288;SDS011;26089;43.538;5.250;2023-02-28T10:28:04;12.20;;;9.93;;
16288;SDS011;26089;43.538;5.250;2023-02-28T10:30:36;10.47;;;9.00;;
16288;SDS011;26089;43.538;5.250;2023-02-28T10:33:11;11.43;;;10.23;;
16288;SDS011;26089;43.538;5.250;2023-02-28T10:35:49;11.43;;;9.67;;
16288;SDS011;26089;43.538;5.250;2023-02-28T10:38:17;11.50;;;9.97;;
16288;SDS011;26089;43.538;5.250;2023-02-28T10:40:45;12.37;;;11.07;;
16288;SDS011;26089;43.538;5.250;2023-02-28T10:43:18;11.83;;;10.50;;
16288;SDS011;26089;43.538;5.250;2023-02-28T10:45:57;10.50;;;9.47;;
16288;SDS011;26089;43.538;5.250;2023-02-28T10:48:29;12.60;;;10.77;;
16288;SDS011;26089;43.538;5.250;2023-02-28T10:51:04;13.10;;;10.63;;
16288;SDS011;26089;43.538;5.250;2023-02-28T10:53:35;10.67;;;9.67;;
16288;SDS011;26089;43.538;5.250;2023-02-28T10:56:05;12.20;;;9.87;;
16288;SDS011;26089;43.538;5.250;2023-02-28T10:58:47;12.93;;;10.53;;
16288;SDS011;26089;43.538;5.250;2023-02-28T11:01:17;11.47;;;10.27;;
16288;SDS011;26089;43.538;5.250;2023-02-28T11:03:45;12.23;;;10.23;;
16288;SDS011;26089;43.538;5.250;2023-02-28T11:06:15;12.67;;;10.37;;
16288;SDS011;26089;43.538;5.250;2023-02-28T11:08:48;11.60;;;10.33;;
16288;SDS011;26089;43.538;5.250;2023-02-28T11:11:17;11.30;;;9.90;;
16288;SDS011;26089;43.538;5.250;2023-02-28T11:13:46;12.43;;;10.13;;
16288;SDS011;26089;43.538;5.250;2023-02-28T11:16:17;11.63;;;10.43;;
16288;SDS011;26089;43.538;5.250;2023-02-28T11:18:47;11.40;;;10.20;;
16288;SDS011;26089;43.538;5.250;2023-02-28T11:21:18;10.43;;;9.33;;
16288;SDS011;26089;43.538;5.250;2023-02-28T11:23:49;12.40;;;9.87;;
16288;SDS011;26089;43.538;5.250;2023-02-28T11:29:12;11.43;;;10.23;;
16288;SDS011;26089;43.538;5.250;2023-02-28T11:31:49;10.73;;;9.43;;
16288;SDS011;26089;43.538;5.250;2023-02-28T11:34:34;11.13;;;9.93;;
16288;SDS011;26089;43.538;5.250;2023-02-28T11:37:05;11.20;;;9.70;;
16288;SDS011;26089;43.538;5.250;2023-02-28T11:39:36;10.90;;;9.70;;
16288;SDS011;26089;43.538;5.250;2023-02-28T11:45:03;12.57;;;11.27;;
16288;SDS011;26089;43.538;5.250;2023-02-28T11:47:44;13.23;;;10.70;;
16288;SDS011;26089;43.538;5.250;2023-02-28T11:50:16;12.53;;;11.10;;
16288;SDS011;26089;43.538;5.250;2023-02-28T11:52:54;14.57;;;11.33;;
16288;SDS011;26089;43.538;5.250;2023-02-28T11:55:25;11.87;;;10.67;;
16288;SDS011;26089;43.538;5.250;2023-02-28T11:58:00;12.60;;;10.90;;
16288;SDS011;26089;43.538;5.250;2023-02-28T12:01:00;12.00;;;10.53;;
16288;SDS011;26089;43.538;5.250;2023-02-28T12:03:35;12.67;;;10.77;;
16288;SDS011;26089;43.538;5.250;2023-02-28T12:06:14;12.97;;;10.13;;
16288;SDS011;26089;43.538;5.250;2023-02-28T12:08:51;14.17;;;10.90;;
16288;SDS011;26089;43.538;5.250;2023-02-28T12:11:30;14.03;;;11.07;;
16288;SDS011;26089;43.538;5.250;2023-02-28T12:14:09;13.00;;;10.70;;
16288;SDS011;26089;43.538;5.250;2023-02-28T12:16:55;13.83;;;10.57;;
16288;SDS011;26089;43.538;5.250;2023-02-28T12:19:29;10.97;;;9.73;;
16288;SDS011;26089;43.538;5.250;2023-02-28T12:25:01;13.43;;;10.93;;
16288;SDS011;26089;43.538;5.250;2023-02-28T12:27:47;15.50;;;11.50;;
16288;SDS011;26089;43.538;5.250;2023-02-28T12:30:16;14.13;;;11.60;;
16288;SDS011;26089;43.538;5.250;2023-02-28T12:32:49;14.67;;;10.93;;
16288;SDS011;26089;43.538;5.250;2023-02-28T12:35:21;14.80;;;11.50;;
16288;SDS011;26089;43.538;5.250;2023-02-28T12:37:54;15.00;;;10.90;;
16288;SDS011;26089;43.538;5.250;2023-02-28T12:40:25;12.77;;;11.47;;
16288;SDS011;26089;43.538;5.250;2023-02-28T12:42:59;13.13;;;10.93;;
16288;SDS011;26089;43.538;5.250;2023-02-28T12:45:32;16.67;;;12.17;;
16288;SDS011;26089;43.538;5.250;2023-02-28T12:48:08;15.47;;;11.40;;
16288;SDS011;26089;43.538;5.250;2023-02-28T12:50:40;13.97;;;10.90;;
16288;SDS011;26089;43.538;5.250;2023-02-28T12:53:09;16.77;;;12.27;;
16288;SDS011;26089;43.538;5.250;2023-02-28T12:55:41;12.27;;;10.63;;
16288;SDS011;26089;43.538;5.250;2023-02-28T12:58:14;11.67;;;10.13;;
16288;SDS011;26089;43.538;5.250;2023-02-28T13:00:53;12.77;;;10.30;;
16288;SDS011;26089;43.538;5.250;2023-02-28T13:06:57;11.40;;;10.23;;
16288;SDS011;26089;43.538;5.250;2023-02-28T13:09:36;12.97;;;10.43;;
16288;SDS011;26089;43.538;5.250;2023-02-28T13:12:13;11.53;;;10.23;;
16288;SDS011;26089;43.538;5.250;2023-02-28T13:14:41;10.60;;;9.50;;
16288;SDS011;26089;43.538;5.250;2023-02-28T13:17:12;11.97;;;10.57;;
16288;SDS011;26089;43.538;5.250;2023-02-28T13:19:44;13.73;;;11.20;;
16288;SDS011;26089;43.538;5.250;2023-02-28T13:22:36;12.60;;;11.30;;
16288;SDS011;26089;43.538;5.250;2023-02-28T13:28:08;13.80;;;10.40;;
16288;SDS011;26089;43.538;5.250;2023-02-28T13:33:31;11.00;;;9.77;;
16288;SDS011;26089;43.538;5.250;2023-02-28T13:36:01;10.90;;;9.67;;
16288;SDS011;26089;43.538;5.250;2023-02-28T13:38:36;13.13;;;10.33;;
16288;SDS011;26089;43.538;5.250;2023-02-28T13:44:08;11.60;;;10.37;;
16288;SDS011;26089;43.538;5.250;2023-02-28T13:49:50;11.93;;;10.37;;
16288;SDS011;26089;43.538;5.250;2023-02-28T13:52:18;14.07;;;10.00;;
16288;SDS011;26089;43.538;5.250;2023-02-28T13:58:01;10.43;;;9.37;;
16288;SDS011;26089;43.538;5.250;2023-02-28T14:00:51;10.03;;;9.00;;
16288;SDS011;26089;43.538;5.250;2023-02-28T14:03:37;12.73;;;9.70;;
16288;SDS011;26089;43.538;5.250;2023-02-28T14:06:18;10.63;;;8.87;;
16288;SDS011;26089;43.538;5.250;2023-02-28T14:08:55;10.73;;;9.00;;
16288;SDS011;26089;43.538;5.250;2023-02-28T14:11:26;10.07;;;9.10;;
16288;SDS011;26089;43.538;5.250;2023-02-28T14:13:56;11.30;;;9.03;;
16288;SDS011;26089;43.538;5.250;2023-02-28T14:16:26;12.47;;;8.83;;
16288;SDS011;26089;43.538;5.250;2023-02-28T14:18:56;13.83;;;11.00;;
16288;SDS011;26089;43.538;5.250;2023-02-28T14:21:27;11.20;;;9.60;;
16288;SDS011;26089;43.538;5.250;2023-02-28T14:24:01;14.10;;;10.27;;
16288;SDS011;26089;43.538;5.250;2023-02-28T14:32:43;12.77;;;9.37;;
16288;SDS011;26089;43.538;5.250;2023-02-28T14:35:39;15.03;;;10.93;;
16288;SDS011;26089;43.538;5.250;2023-02-28T14:38:18;13.93;;;9.97;;
16288;SDS011;26089;43.538;5.250;2023-02-28T14:40:49;10.33;;;8.37;;
16288;SDS011;26089;43.538;5.250;2023-02-28T14:43:20;9.60;;;8.60;;
16288;SDS011;26089;43.538;5.250;2023-02-28T14:45:49;12.10;;;10.47;;
16288;SDS011;26089;43.538;5.250;2023-02-28T14:48:19;10.13;;;8.70;;
16288;SDS011;26089;43.538;5.250;2023-02-28T14:50:48;9.53;;;8.43;;
16288;SDS011;26089;43.538;5.250;2023-02-28T14:53:18;9.90;;;8.90;;
16288;SDS011;26089;43.538;5.250;2023-02-28T14:55:47;9.97;;;8.97;;
16288;SDS011;26089;43.538;5.250;2023-02-28T14:58:22;10.60;;;9.50;;
16288;SDS011;26089;43.538;5.250;2023-02-28T15:00:51;11.73;;;9.53;;
16288;SDS011;26089;43.538;5.250;2023-02-28T15:03:21;11.03;;;9.30;;
16288;SDS011;26089;43.538;5.250;2023-02-28T15:05:53;12.67;;;8.77;;
16288;SDS011;26089;43.538;5.250;2023-02-28T15:08:21;10.10;;;9.10;;
16288;SDS011;26089;43.538;5.250;2023-02-28T15:10:53;11.70;;;9.20;;
16288;SDS011;26089;43.538;5.250;2023-02-28T15:13:21;12.77;;;10.90;;
16288;SDS011;26089;43.538;5.250;2023-02-28T15:15:51;11.40;;;9.07;;
16288;SDS011;26089;43.538;5.250;2023-02-28T15:18:28;11.23;;;9.43;;
16288;SDS011;26089;43.538;5.250;2023-02-28T15:21:00;11.87;;;9.90;;
16288;SDS011;26089;43.538;5.250;2023-02-28T15:23:30;11.53;;;9.70;;
16288;SDS011;26089;43.538;5.250;2023-02-28T15:25:57;10.80;;;9.77;;
16288;SDS011;26089;43.538;5.250;2023-02-28T15:28:26;10.90;;;9.73;;
16288;SDS011;26089;43.538;5.250;2023-02-28T15:30:55;11.73;;;9.90;;
16288;SDS011;26089;43.538;5.250;2023-02-28T15:33:24;12.50;;;9.73;;
16288;SDS011;26089;43.538;5.250;2023-02-28T15:36:04;11.90;;;9.40;;
16288;SDS011;26089;43.538;5.250;2023-02-28T15:38:34;12.60;;;9.87;;
16288;SDS011;26089;43.538;5.250;2023-02-28T15:41:02;11.57;;;9.27;;